Time;durP1;ratioP1;P1;durP2;ratioP2;P2;SDS_P1;SDS_P2;PMS_P1;PMS_P2;Temp;Humidity;BMP_temperature;BMP_pressure;BME280_temperature;BME280_humidity;BME280_pressure;Samples;Min_cycle;Max_cycle;Signal;HPM_P1;HPM_P2
2022/04/02 00:00:28;;;;;;;5.22;0.73;;;20.30;99.90;;;;;;5009449;28;20057;-65
2022/04/02 00:02:56;;;;;;;4.38;0.90;;;20.20;99.90;;;;;;5008137;28;20022;-67
2022/04/02 00:05:25;;;;;;;2.67;0.50;;;20.20;99.90;;;;;;5013643;28;20018;-66
2022/04/02 00:07:52;;;;;;;5.30;0.95;;;20.30;99.90;;;;;;5007782;28;20020;-67
2022/04/02 00:10:19;;;;;;;2.00;0.70;;;20.60;99.90;;;;;;5009553;28;20021;-65
2022/04/02 00:12:46;;;;;;;3.10;0.70;;;20.90;99.90;;;;;;5014175;28;20371;-67
2022/04/02 00:15:13;;;;;;;1.95;0.30;;;20.70;99.90;;;;;;5009395;28;20091;-66
2022/04/02 00:17:40;;;;;;;2.42;0.95;;;20.70;99.90;;;;;;5016324;28;20051;-63
2022/04/02 00:20:07;;;;;;;1.98;0.60;;;21.00;99.90;;;;;;5012201;28;20022;-66
2022/04/02 00:22:34;;;;;;;2.25;0.65;;;21.20;99.90;;;;;;5002502;28;20026;-65
2022/04/02 00:25:01;;;;;;;2.63;0.50;;;21.40;99.90;;;;;;5011089;28;20033;-64
2022/04/02 00:27:37;;;;;;;1.77;0.40;;;21.40;99.90;;;;;;5007237;28;20378;-64
2022/04/02 00:30:04;;;;;;;1.08;0.50;;;21.20;99.90;;;;;;5006205;28;20029;-64
2022/04/02 00:32:31;;;;;;;1.33;0.65;;;21.10;99.90;;;;;;5005714;28;20480;-65
2022/04/02 00:34:58;;;;;;;1.67;0.30;;;21.30;99.90;;;;;;5010449;28;20041;-64
2022/04/02 00:37:27;;;;;;;1.38;0.30;;;21.30;99.90;;;;;;5011519;28;20123;-66
2022/04/02 00:39:54;;;;;;;1.10;0.38;;;21.50;99.90;;;;;;5008766;28;20048;-66
2022/04/02 00:42:21;;;;;;;1.27;0.38;;;21.60;99.90;;;;;;5006645;28;20030;-65
2022/04/02 00:44:48;;;;;;;1.73;0.93;;;21.70;99.90;;;;;;5011512;28;20021;-66
2022/04/02 00:47:15;;;;;;;0.60;0.35;;;21.90;99.90;;;;;;5009532;28;20029;-65
2022/04/02 00:49:43;;;;;;;1.02;0.20;;;22.10;99.80;;;;;;5007123;28;20061;-65
2022/04/02 00:52:10;;;;;;;1.35;0.20;;;22.10;99.90;;;;;;5011617;28;20261;-65
2022/04/02 00:54:40;;;;;;;0.20;0.20;;;22.10;99.90;;;;;;5006101;28;20034;-65
2022/04/02 00:57:07;;;;;;;0.90;0.32;;;22.60;99.50;;;;;;5009476;28;20892;-66
2022/04/02 00:59:35;;;;;;;0.40;0.20;;;22.80;99.60;;;;;;5004657;28;20503;-63
2022/04/02 01:02:02;;;;;;;0.73;0.22;;;23.20;99.20;;;;;;5005573;28;20230;-64
2022/04/02 01:04:29;;;;;;;0.52;0.22;;;23.00;98.30;;;;;;5006662;28;20522;-64
2022/04/02 01:06:59;;;;;;;0.60;0.30;;;22.70;98.60;;;;;;5007207;28;20113;-66
2022/04/02 01:09:26;;;;;;;0.63;0.30;;;22.70;98.80;;;;;;5006584;28;20029;-66
2022/04/02 01:11:54;;;;;;;0.77;0.30;;;22.60;98.90;;;;;;5005493;28;20096;-66
2022/04/02 01:14:21;;;;;;;0.98;0.20;;;22.60;98.80;;;;;;5009203;28;20495;-63
2022/04/02 01:16:48;;;;;;;3.90;0.40;;;22.40;98.70;;;;;;5006721;28;20040;-67
2022/04/02 01:19:15;;;;;;;2.38;0.50;;;22.50;99.20;;;;;;5010346;28;20252;-66
2022/04/02 01:21:49;;;;;;;11.07;0.88;;;22.50;98.60;;;;;;5007990;28;20022;-63
2022/04/02 01:24:16;;;;;;;5.05;0.70;;;22.20;99.40;;;;;;5004122;28;20030;-66
2022/04/02 01:26:43;;;;;;;5.95;0.68;;;22.20;99.50;;;;;;5006409;28;20030;-68
2022/04/02 01:29:10;;;;;;;2.63;0.32;;;22.10;99.40;;;;;;5006218;28;20026;-66
2022/04/02 01:31:37;;;;;;;3.20;0.57;;;22.20;98.60;;;;;;5007202;28;20407;-67
2022/04/02 01:34:04;;;;;;;2.00;0.45;;;22.10;99.20;;;;;;5010165;28;20064;-65
2022/04/02 01:36:31;;;;;;;3.30;0.60;;;22.30;99.30;;;;;;5004674;28;20177;-69
2022/04/02 01:38:58;;;;;;;4.18;1.30;;;22.40;99.30;;;;;;5005342;28;20030;-67
2022/04/02 01:41:25;;;;;;;4.38;1.83;;;22.30;99.10;;;;;;5005976;28;20034;-65
2022/04/02 01:43:52;;;;;;;1.92;0.35;;;22.00;99.30;;;;;;5002212;28;20344;-65
2022/04/02 01:46:19;;;;;;;1.33;0.50;;;22.00;99.40;;;;;;5009236;28;20141;-66
2022/04/02 01:48:46;;;;;;;4.50;0.47;;;22.20;99.30;;;;;;5007789;28;20052;-69
2022/04/02 01:51:13;;;;;;;0.22;0.10;;;22.10;99.00;;;;;;5005836;28;20607;-67
2022/04/02 01:53:40;;;;;;;2.72;0.40;;;22.00;99.20;;;;;;5010422;28;20029;-67
2022/04/02 01:56:10;;;;;;;1.35;0.57;;;21.80;99.90;;;;;;5009616;28;20065;-69
2022/04/02 01:58:37;;;;;;;1.90;0.55;;;21.90;99.50;;;;;;5009100;28;20026;-68
2022/04/02 02:01:06;;;;;;;4.68;0.68;;;21.90;99.90;;;;;;5007593;28;20034;-63
2022/04/02 02:03:33;;;;;;;5.20;0.60;;;21.80;99.50;;;;;;5009160;28;20103;-63
2022/04/02 02:06:00;;;;;;;3.08;0.30;;;21.80;99.90;;;;;;5006549;28;20216;-66
2022/04/02 02:08:29;;;;;;;4.45;0.85;;;21.80;99.90;;;;;;5007836;28;20118;-70
2022/04/02 02:10:56;;;;;;;1.80;0.45;;;22.00;99.70;;;;;;5006703;28;20038;-66
2022/04/02 02:13:23;;;;;;;2.75;0.40;;;22.40;99.90;;;;;;5006052;28;20026;-66
2022/04/02 02:15:50;;;;;;;2.20;0.40;;;22.80;99.50;;;;;;5016586;28;20103;-67
2022/04/02 02:18:17;;;;;;;7.25;0.85;;;22.70;99.90;;;;;;5011024;28;20040;-66
2022/04/02 02:20:44;;;;;;;4.82;0.60;;;22.40;99.30;;;;;;5012137;28;20025;-68
2022/04/02 02:23:14;;;;;;;3.67;0.50;;;22.20;99.90;;;;;;5004984;28;20620;-63
2022/04/02 02:25:41;;;;;;;3.47;0.60;;;22.30;99.90;;;;;;5018560;28;20072;-65
2022/04/02 02:28:08;;;;;;;3.55;0.80;;;22.70;99.90;;;;;;5011207;28;20022;-63
2022/04/02 02:30:35;;;;;;;4.22;0.65;;;23.30;98.90;;;;;;5009090;28;20128;-63
2022/04/02 02:35:50;;;;;;;3.15;0.32;;;23.50;98.90;;;;;;5007219;28;20440;-61
2022/04/02 02:38:21;;;;;;;1.45;0.30;;;23.40;98.90;;;;;;5005163;28;20123;-63
2022/04/02 02:40:50;;;;;;;3.00;0.20;;;23.10;98.10;;;;;;5007668;28;20033;-65
2022/04/02 02:43:19;;;;;;;3.88;0.50;;;22.90;98.40;;;;;;5012121;28;20125;-64
2022/04/02 02:45:46;;;;;;;9.88;0.70;;;22.80;98.90;;;;;;5007839;28;20388;-63
2022/04/02 02:48:13;;;;;;;2.97;0.30;;;22.80;99.10;;;;;;5007565;28;20029;-65
2022/04/02 02:50:42;;;;;;;2.10;0.50;;;22.80;98.60;;;;;;5005153;28;20025;-66
2022/04/02 02:53:10;;;;;;;1.02;0.35;;;22.70;99.30;;;;;;5005474;28;20207;-63
2022/04/02 02:55:37;;;;;;;0.20;0.20;;;23.00;99.00;;;;;;5013548;28;20025;-62
2022/04/02 02:58:05;;;;;;;4.63;0.50;;;23.60;97.70;;;;;;5013702;28;20029;-63
2022/04/02 03:00:32;;;;;;;3.20;0.57;;;23.70;97.70;;;;;;5008239;28;20089;-66
2022/04/02 03:02:58;;;;;;;4.05;0.40;;;23.60;97.50;;;;;;5011535;28;20412;-65
2022/04/02 03:05:25;;;;;;;2.03;0.20;;;23.30;97.50;;;;;;5013564;28;20030;-69
2022/04/02 03:07:52;;;;;;;2.92;0.28;;;23.00;98.10;;;;;;4999695;28;20391;-65
2022/04/02 03:10:22;;;;;;;0.70;0.30;;;22.90;98.70;;;;;;5006917;28;20223;-70
2022/04/02 03:12:53;;;;;;;0.60;0.32;;;23.00;98.20;;;;;;5008539;28;20116;-71
2022/04/02 03:15:21;;;;;;;1.25;0.20;;;22.90;98.60;;;;;;5013182;28;20366;-66
2022/04/02 03:17:49;;;;;;;4.80;0.28;;;22.80;98.20;;;;;;5012755;28;20446;-68
2022/04/02 03:20:18;;;;;;;0.75;0.20;;;22.80;99.30;;;;;;5012390;28;20468;-69
2022/04/02 03:22:47;;;;;;;0.52;0.20;;;22.60;98.40;;;;;;5016339;28;20547;-64
2022/04/02 03:25:16;;;;;;;1.23;0.43;;;22.60;98.30;;;;;;5009418;28;20511;-63
2022/04/02 03:27:44;;;;;;;0.45;0.10;;;22.60;99.20;;;;;;5009496;28;20072;-64
2022/04/02 03:30:12;;;;;;;5.40;0.38;;;22.70;98.60;;;;;;5018306;28;20037;-69
2022/04/02 03:32:40;;;;;;;1.13;0.40;;;22.80;99.00;;;;;;5008175;28;20028;-64
2022/04/02 03:35:08;;;;;;;2.22;0.88;;;23.00;99.00;;;;;;5004930;28;20029;-63
2022/04/02 03:37:37;;;;;;;2.08;1.10;;;23.00;98.30;;;;;;5017500;28;20528;-68
2022/04/02 03:40:07;;;;;;;0.85;0.43;;;23.00;98.20;;;;;;5011779;28;20475;-67
2022/04/02 03:42:35;;;;;;;0.55;0.20;;;23.10;98.20;;;;;;5005845;28;20117;-66
2022/04/02 03:45:03;;;;;;;1.35;0.38;;;23.00;98.00;;;;;;5006380;28;20018;-67
2022/04/02 03:47:31;;;;;;;11.27;1.00;;;22.90;97.30;;;;;;5015459;28;20247;-67
2022/04/02 03:49:58;;;;;;;3.20;0.80;;;23.00;97.80;;;;;;5010740;28;20265;-65
2022/04/02 03:52:26;;;;;;;5.45;0.73;;;22.90;97.70;;;;;;5017281;28;20053;-65
2022/04/02 03:54:53;;;;;;;3.92;1.13;;;23.10;97.80;;;;;;5011148;28;20104;-70
2022/04/02 03:57:21;;;;;;;0.10;0.10;;;23.00;97.00;;;;;;5008536;28;20113;-66
2022/04/02 03:59:48;;;;;;;0.22;0.20;;;22.90;97.10;;;;;;5008233;28;20037;-73
2022/04/02 04:02:16;;;;;;;2.28;0.50;;;23.10;98.20;;;;;;5015341;28;20029;-73
2022/04/02 04:04:43;;;;;;;0.85;0.40;;;23.40;97.60;;;;;;5014425;28;20034;-69
2022/04/02 04:07:10;;;;;;;6.28;0.40;;;23.60;97.20;;;;;;5009510;28;20397;-72
2022/04/02 04:09:37;;;;;;;3.10;0.20;;;23.70;97.50;;;;;;5019819;28;20585;-67
2022/04/02 04:12:04;;;;;;;0.20;0.17;;;23.70;96.90;;;;;;5012316;28;20030;-65
2022/04/02 04:14:31;;;;;;;1.25;0.30;;;23.80;96.40;;;;;;5011258;28;20018;-68
2022/04/02 04:16:58;;;;;;;1.52;0.50;;;24.00;96.50;;;;;;5014134;28;20018;-64
2022/04/02 04:19:26;;;;;;;0.38;0.20;;;23.90;96.60;;;;;;5010009;28;20224;-67
2022/04/02 04:21:53;;;;;;;3.05;0.22;;;24.00;97.20;;;;;;5006945;28;20504;-67
2022/04/02 04:24:20;;;;;;;2.55;0.28;;;24.00;96.30;;;;;;5005449;28;20018;-68
2022/04/02 04:26:47;;;;;;;1.65;0.40;;;23.90;97.00;;;;;;5007050;28;20330;-66
2022/04/02 04:29:14;;;;;;;1.52;0.70;;;23.60;97.20;;;;;;5009336;28;20116;-70
2022/04/02 04:31:41;;;;;;;0.70;0.13;;;23.40;97.20;;;;;;5009369;28;20029;-67
2022/04/02 04:34:08;;;;;;;1.45;0.10;;;23.20;97.70;;;;;;5013323;28;20033;-66
2022/04/02 04:36:36;;;;;;;0.68;0.40;;;23.10;97.60;;;;;;5008820;28;20030;-67
2022/04/02 04:39:06;;;;;;;0.20;0.15;;;23.20;97.50;;;;;;5010264;28;20116;-70
2022/04/02 04:41:33;;;;;;;0.22;0.10;;;23.70;97.90;;;;;;4997579;28;20440;-71
2022/04/02 04:44:00;;;;;;;0.43;0.10;;;24.20;96.90;;;;;;4992663;28;20048;-68
2022/04/02 04:46:28;;;;;;;0.57;0.25;;;24.40;97.00;;;;;;4998251;28;20022;-72
2022/04/02 04:48:55;;;;;;;1.38;0.57;;;24.20;96.70;;;;;;4991060;28;20557;-70
2022/04/02 04:51:23;;;;;;;1.77;0.47;;;23.90;96.50;;;;;;4993714;28;20022;-64
2022/04/02 04:53:51;;;;;;;0.70;0.20;;;23.50;97.10;;;;;;5001577;28;20032;-67
2022/04/02 04:56:18;;;;;;;0.75;0.30;;;23.40;97.50;;;;;;4988179;28;20032;-71
2022/04/02 04:58:45;;;;;;;0.15;0.15;;;23.30;97.60;;;;;;4995832;28;20056;-70
2022/04/02 05:01:15;;;;;;;0.32;0.20;;;23.40;97.80;;;;;;4995635;28;20034;-68
2022/04/02 05:03:42;;;;;;;1.05;0.30;;;23.50;97.50;;;;;;4989638;28;20046;-65
2022/04/02 05:06:12;;;;;;;0.35;0.15;;;23.40;97.80;;;;;;4986822;28;20065;-70
2022/04/02 05:08:39;;;;;;;0.80;0.28;;;23.30;97.10;;;;;;4995560;28;20117;-70
2022/04/02 05:11:08;;;;;;;1.25;0.38;;;23.00;97.60;;;;;;4987451;28;20029;-63
2022/04/02 05:13:35;;;;;;;2.13;0.22;;;22.90;98.00;;;;;;4993201;28;20500;-70
2022/04/02 05:16:02;;;;;;;0.30;0.10;;;23.10;97.90;;;;;;4995633;28;20076;-65
2022/04/02 05:18:29;;;;;;;2.53;0.40;;;23.10;98.20;;;;;;4997193;28;20207;-64
2022/04/02 05:20:56;;;;;;;3.15;0.50;;;23.60;98.00;;;;;;4989168;28;20058;-66
2022/04/02 05:23:23;;;;;;;2.00;0.45;;;23.60;96.90;;;;;;4992226;28;20026;-70
2022/04/02 05:25:50;;;;;;;2.33;0.30;;;23.80;96.70;;;;;;4993713;28;20071;-66
2022/04/02 05:28:17;;;;;;;1.98;0.60;;;23.80;96.60;;;;;;4986120;28;20465;-66
2022/04/02 05:30:44;;;;;;;1.75;0.47;;;23.30;96.90;;;;;;4986105;28;20370;-64
2022/04/02 05:33:11;;;;;;;9.18;0.63;;;23.00;96.80;;;;;;4992445;28;20066;-70
2022/04/02 05:35:38;;;;;;;3.05;0.47;;;22.80;97.80;;;;;;4992655;28;20030;-69
2022/04/02 05:38:05;;;;;;;3.08;0.93;;;22.80;98.40;;;;;;4994781;28;20058;-69
2022/04/02 05:40:32;;;;;;;0.40;0.25;;;22.90;98.00;;;;;;4988466;28;20118;-65
2022/04/02 05:42:59;;;;;;;2.60;0.65;;;23.30;97.80;;;;;;4998936;28;20026;-75
2022/04/02 05:45:26;;;;;;;1.13;0.32;;;23.40;97.80;;;;;;4998699;28;20031;-71
2022/04/02 05:47:53;;;;;;;1.25;0.40;;;23.60;96.90;;;;;;5000635;28;20060;-65
2022/04/02 05:50:24;;;;;;;2.58;0.50;;;23.40;96.90;;;;;;4997424;28;20502;-64
2022/04/02 05:52:51;;;;;;;4.57;0.40;;;23.20;97.20;;;;;;4998661;28;20030;-69
2022/04/02 05:55:18;;;;;;;3.13;0.73;;;23.10;97.20;;;;;;4995269;28;20018;-70
2022/04/02 05:57:48;;;;;;;2.10;0.60;;;23.10;97.50;;;;;;4993214;28;20034;-65
2022/04/02 06:00:17;;;;;;;1.50;0.30;;;22.90;97.00;;;;;;4996380;28;20113;-69
2022/04/02 06:02:45;;;;;;;2.10;0.50;;;22.50;97.50;;;;;;4991071;28;20049;-66
2022/04/02 06:05:15;;;;;;;1.63;0.40;;;22.20;98.20;;;;;;4996369;28;20019;-69
2022/04/02 06:07:43;;;;;;;3.50;0.60;;;22.10;98.40;;;;;;4991155;28;20389;-65
2022/04/02 06:10:10;;;;;;;1.83;0.50;;;22.10;98.20;;;;;;4997477;28;20450;-66
2022/04/02 06:12:38;;;;;;;2.78;0.80;;;22.30;98.10;;;;;;4995812;28;20026;-66
2022/04/02 06:15:09;;;;;;;3.25;0.30;;;22.40;98.70;;;;;;4996057;28;20491;-70
2022/04/02 06:17:37;;;;;;;6.10;0.90;;;22.40;98.10;;;;;;4998096;28;20083;-70
2022/04/02 06:20:05;;;;;;;6.05;0.70;;;22.20;98.10;;;;;;4997940;28;20030;-70
2022/04/02 06:22:33;;;;;;;0.52;0.22;;;22.30;98.00;;;;;;4995015;28;20050;-70
2022/04/02 06:25:00;;;;;;;0.30;0.20;;;22.30;97.90;;;;;;4996760;28;20046;-64
2022/04/02 06:27:27;;;;;;;1.40;0.50;;;22.20;97.90;;;;;;4994795;28;20026;-69
2022/04/02 06:29:55;;;;;;;2.05;0.30;;;22.30;98.30;;;;;;4990571;28;20049;-65
2022/04/02 06:32:23;;;;;;;1.10;0.60;;;22.20;98.20;;;;;;4993154;28;20033;-70
2022/04/02 06:34:50;;;;;;;3.03;0.57;;;22.40;98.00;;;;;;4995866;28;20022;-70
2022/04/02 06:37:17;;;;;;;0.40;0.30;;;22.70;97.90;;;;;;4999204;28;20105;-65
2022/04/02 06:39:44;;;;;;;2.95;0.47;;;23.20;97.50;;;;;;4995718;28;20204;-65
2022/04/02 06:42:12;;;;;;;0.82;0.35;;;23.90;96.60;;;;;;4999573;28;20234;-65
2022/04/02 06:44:39;;;;;;;1.98;0.20;;;24.40;96.00;;;;;;4997927;28;20520;-69
2022/04/02 06:47:06;;;;;;;4.53;0.55;;;24.20;95.40;;;;;;4995941;28;20101;-65
2022/04/02 06:49:33;;;;;;;0.93;0.30;;;24.20;95.60;;;;;;5000148;28;20048;-65
2022/04/02 06:52:00;;;;;;;2.63;0.55;;;24.20;95.50;;;;;;4988068;28;20030;-69
2022/04/02 06:54:27;;;;;;;2.78;0.88;;;23.90;95.50;;;;;;4994761;28;20034;-69
2022/04/02 06:56:55;;;;;;;4.88;1.38;;;24.00;95.90;;;;;;5000469;28;20062;-66
2022/04/02 06:59:22;;;;;;;6.07;0.98;;;23.70;96.30;;;;;;4993152;28;20328;-65
2022/04/02 07:01:50;;;;;;;2.40;0.52;;;23.30;96.80;;;;;;4995655;28;20022;-65
2022/04/02 07:04:17;;;;;;;6.38;0.63;;;23.00;97.10;;;;;;4994030;28;20077;-65
2022/04/02 07:06:45;;;;;;;3.33;0.50;;;22.90;97.10;;;;;;4995845;28;20019;-72
2022/04/02 07:09:14;;;;;;;2.95;0.40;;;23.20;96.50;;;;;;4988317;28;20077;-69
2022/04/02 07:11:42;;;;;;;4.43;0.47;;;23.40;96.60;;;;;;4994958;28;20023;-73
2022/04/02 07:14:09;;;;;;;1.75;0.30;;;23.50;96.30;;;;;;4994063;28;20045;-74
2022/04/02 07:16:38;;;;;;;2.97;0.60;;;23.30;96.30;;;;;;4991901;28;20040;-64
2022/04/02 07:19:06;;;;;;;6.32;0.65;;;23.00;96.60;;;;;;4991718;28;20104;-68
2022/04/02 07:21:34;;;;;;;0.80;0.30;;;22.70;97.50;;;;;;4990216;28;20022;-67
2022/04/02 07:24:02;;;;;;;4.20;0.40;;;22.70;97.10;;;;;;4998375;28;20772;-66
2022/04/02 07:26:32;;;;;;;10.98;0.77;;;22.80;97.20;;;;;;4993444;28;20424;-69
2022/04/02 07:29:00;;;;;;;4.03;0.82;;;22.80;97.20;;;;;;4993907;28;20032;-66
2022/04/02 07:31:27;;;;;;;2.13;0.70;;;22.70;97.40;;;;;;4993824;28;20118;-73
2022/04/02 07:33:54;;;;;;;2.97;0.70;;;22.50;97.70;;;;;;4997077;28;20040;-66
2022/04/02 07:36:43;;;;;;;3.78;0.70;;;22.40;97.90;;;;;;4997923;28;20034;-66
2022/04/02 07:39:29;;;;;;;3.55;0.60;;;22.20;97.90;;;;;;4998057;28;20559;-69
2022/04/02 07:42:14;;;;;;;1.40;0.50;;;21.60;99.20;;;;;;4996220;28;20500;-68
2022/04/02 07:45:06;;;;;;;2.42;0.68;;;21.10;99.90;;;;;;4993746;28;20023;-68
2022/04/02 07:47:36;;;;;;;1.95;0.40;;;20.70;99.90;;;;;;4997793;28;20057;-71
2022/04/02 07:50:09;;;;;;;1.48;0.50;;;20.40;99.90;;;;;;4997306;28;20041;-66
2022/04/02 07:52:36;;;;;;;1.98;0.82;;;20.20;99.90;;;;;;4995578;28;20747;-72
2022/04/02 07:55:08;;;;;;;5.15;0.88;;;20.00;99.90;;;;;;4995369;28;20040;-71
2022/04/02 07:57:46;;;;;;;3.65;0.73;;;19.80;99.90;;;;;;4990150;28;20030;-71
2022/04/02 08:00:15;;;;;;;5.28;1.05;;;19.80;99.90;;;;;;4989316;28;20050;-70
2022/04/02 08:02:46;;;;;;;3.45;0.90;;;19.70;99.90;;;;;;4993727;28;20034;-66
2022/04/02 08:05:19;;;;;;;2.30;0.93;;;19.60;99.90;;;;;;4995304;28;20026;-66
2022/04/02 08:07:54;;;;;;;2.33;0.50;;;19.50;99.90;;;;;;4988722;28;20117;-66
2022/04/02 08:10:28;;;;;;;1.85;0.65;;;19.50;99.90;;;;;;4994190;28;20045;-66
2022/04/02 08:12:57;;;;;;;3.60;0.50;;;19.40;99.90;;;;;;4989859;28;20038;-65
2022/04/02 08:15:24;;;;;;;3.10;0.77;;;19.30;99.90;;;;;;4995944;28;20034;-70
2022/04/02 08:17:54;;;;;;;0.90;0.50;;;19.20;99.90;;;;;;4996531;28;20025;-65
2022/04/02 08:20:23;;;;;;;6.30;0.75;;;19.10;99.90;;;;;;4997614;28;20545;-70
2022/04/02 08:22:51;;;;;;;4.00;0.70;;;19.10;99.90;;;;;;4988521;28;20022;-70
2022/04/02 08:25:19;;;;;;;5.95;1.27;;;19.00;99.90;;;;;;4992810;28;20010;-67
2022/04/02 08:28:09;;;;;;;4.95;1.70;;;18.90;99.90;;;;;;4995866;28;20658;-65
2022/04/02 08:30:49;;;;;;;1.23;0.38;;;18.90;99.90;;;;;;4989347;28;20077;-69
2022/04/02 08:33:16;;;;;;;5.78;0.70;;;18.90;99.90;;;;;;4989742;28;20041;-67
2022/04/02 08:36:07;;;;;;;2.80;0.63;;;18.80;99.90;;;;;;4999729;28;20073;-66
2022/04/02 08:38:46;;;;;;;8.93;1.10;;;18.70;99.90;;;;;;4987999;28;20034;-70
2022/04/02 08:41:45;;;;;;;4.05;0.73;;;18.60;99.90;;;;;;4992501;28;20031;-71
2022/04/02 08:44:41;;;;;;;6.30;0.60;;;18.60;99.90;;;;;;4923516;29;20675;-69
2022/04/02 08:47:38;;;;;;;2.92;0.52;;;18.50;99.90;;;;;;4909098;29;20069;-68
2022/04/02 08:50:16;;;;;;;5.53;0.82;;;18.50;99.90;;;;;;4907532;29;20031;-69
2022/04/02 08:53:16;;;;;;;6.75;1.00;;;18.50;99.90;;;;;;4914998;29;20487;-67
2022/04/02 08:55:48;;;;;;;6.07;0.68;;;18.50;99.90;;;;;;4914544;29;20036;-67
2022/04/02 08:58:21;;;;;;;4.25;0.85;;;18.40;99.90;;;;;;4905914;29;20090;-67
2022/04/02 09:01:04;;;;;;;1.80;0.60;;;18.40;99.90;;;;;;4913407;29;20800;-68
2022/04/02 09:03:40;;;;;;;2.03;0.50;;;18.30;99.90;;;;;;4908797;29;20058;-66
2022/04/02 09:06:41;;;;;;;4.47;0.75;;;18.30;99.90;;;;;;4905185;29;20821;-68
2022/04/02 09:09:40;;;;;;;3.65;0.63;;;18.30;99.90;;;;;;4915703;29;20035;-67
2022/04/02 09:12:44;;;;;;;4.15;0.57;;;18.30;99.90;;;;;;4918768;29;20023;-67
2022/04/02 09:15:33;;;;;;;5.03;0.70;;;18.20;99.90;;;;;;4908716;29;20048;-68
2022/04/02 09:18:29;;;;;;;3.55;0.52;;;18.20;99.90;;;;;;4812030;29;20587;-69
2022/04/02 09:21:01;;;;;;;6.40;0.73;;;18.10;99.90;;;;;;4855182;29;20049;-68
2022/04/02 09:24:14;;;;;;;3.92;0.90;;;18.10;99.90;;;;;;4855248;29;20412;-66
2022/04/02 09:27:16;;;;;;;2.88;1.20;;;18.00;99.90;;;;;;4796994;29;20553;-67
2022/04/02 09:30:05;;;;;;;2.25;0.40;;;17.90;99.90;;;;;;4797727;29;20071;-69
2022/04/02 09:33:09;;;;;;;0.63;0.20;;;17.70;99.90;;;;;;4797201;29;20135;-69
2022/04/02 09:36:09;;;;;;;0.20;0.20;;;17.60;99.90;;;;;;4798120;29;20047;-69
2022/04/02 09:38:50;;;;;;;2.50;0.43;;;17.50;99.90;;;;;;4797213;29;20057;-67
2022/04/02 09:41:18;;;;;;;0.40;0.20;;;17.60;99.90;;;;;;4796879;29;20501;-69
2022/04/02 09:44:05;;;;;;;0.40;0.17;;;17.70;99.90;;;;;;4796696;29;20035;-67
2022/04/02 09:47:00;;;;;;;3.70;0.38;;;17.70;99.90;;;;;;4795614;29;20034;-68
2022/04/02 09:50:03;;;;;;;1.20;0.30;;;17.80;99.90;;;;;;4793802;29;20157;-67
2022/04/02 09:52:33;;;;;;;2.95;0.60;;;17.70;99.90;;;;;;4814376;29;20178;-66
2022/04/02 09:55:14;;;;;;;1.42;0.47;;;17.60;99.90;;;;;;4841073;29;20041;-69
2022/04/02 09:58:10;;;;;;;1.80;0.43;;;17.50;99.90;;;;;;4931844;28;20037;-67
2022/04/02 10:00:52;;;;;;;0.85;0.30;;;17.60;99.90;;;;;;4997259;28;20026;-68
2022/04/02 10:03:43;;;;;;;1.00;0.40;;;17.50;99.90;;;;;;5001178;28;20036;-69
2022/04/02 10:06:28;;;;;;;2.47;0.30;;;17.40;99.90;;;;;;4989831;28;20429;-70
2022/04/02 10:09:04;;;;;;;1.33;0.50;;;17.40;99.90;;;;;;5004930;28;20111;-69
2022/04/02 10:11:34;;;;;;;1.95;0.50;;;17.50;99.90;;;;;;4998583;28;20053;-72
2022/04/02 10:14:03;;;;;;;1.90;0.88;;;17.50;99.90;;;;;;5001024;28;20053;-72
2022/04/02 10:16:31;;;;;;;1.63;0.60;;;17.40;99.90;;;;;;5000817;28;20034;-71
2022/04/02 10:19:00;;;;;;;5.22;2.22;;;17.50;99.90;;;;;;4993902;28;20129;-69
2022/04/02 10:21:32;;;;;;;7.10;4.47;;;17.40;99.90;;;;;;5005118;28;20053;-72
2022/04/02 10:24:21;;;;;;;7.10;4.25;;;17.40;99.90;;;;;;4996812;28;20032;-70
2022/04/02 10:26:56;;;;;;;2.88;1.65;;;17.40;99.90;;;;;;4993395;28;20018;-69
2022/04/02 10:29:59;;;;;;;1.90;0.93;;;17.30;99.90;;;;;;4997096;28;20022;-71
2022/04/02 10:32:47;;;;;;;5.00;0.93;;;17.20;99.90;;;;;;4992247;28;20415;-70
2022/04/02 10:35:15;;;;;;;2.60;0.90;;;17.20;99.90;;;;;;5005933;28;20029;-73
2022/04/02 10:37:55;;;;;;;2.78;0.93;;;17.10;99.90;;;;;;5060373;23;20060;-68
2022/04/02 10:40:25;;;;;;;7.18;1.63;;;16.80;99.90;;;;;;5039710;28;20123;-68
2022/04/02 10:42:58;;;;;;;4.28;0.90;;;16.70;99.90;;;;;;5042997;28;20025;-70
2022/04/02 10:45:28;;;;;;;;;;;16.60;99.90;;;;;;5042994;28;20025;-68
2022/04/02 10:48:13;;;;;;;3.88;0.93;;;16.40;99.90;;;;;;5043892;28;19912;-69
2022/04/02 10:50:45;;;;;;;6.25;1.25;;;16.20;99.90;;;;;;5040806;28;20037;-69
2022/04/02 10:53:17;;;;;;;7.28;1.00;;;16.20;99.90;;;;;;5040559;28;20047;-70
2022/04/02 10:55:46;;;;;;;8.38;1.08;;;16.40;99.90;;;;;;5046194;28;20395;-71
2022/04/02 10:58:15;;;;;;;7.53;1.27;;;16.40;99.90;;;;;;5041480;28;20029;-72
2022/04/02 11:00:48;;;;;;;7.35;1.40;;;16.50;99.90;;;;;;5042561;28;20032;-70
2022/04/02 11:03:34;;;;;;;6.50;0.90;;;16.50;99.90;;;;;;5044314;28;20487;-72
2022/04/02 11:06:02;;;;;;;5.47;1.15;;;16.40;99.90;;;;;;5039855;28;20196;-71
2022/04/02 11:08:32;;;;;;;5.05;1.08;;;16.50;99.90;;;;;;5041924;28;20384;-70
2022/04/02 11:11:14;;;;;;;2.72;0.70;;;16.50;99.90;;;;;;5040785;28;20116;-72
2022/04/02 11:13:43;;;;;;;6.38;1.70;;;16.60;99.90;;;;;;5043543;28;20435;-71
2022/04/02 11:16:23;;;;;;;6.55;2.03;;;16.50;99.90;;;;;;5042228;28;20110;-71
2022/04/02 11:21:57;;;;;;;7.85;2.00;;;16.40;99.90;;;;;;5040078;28;20111;-69
2022/04/02 11:24:28;;;;;;;8.07;1.83;;;16.40;99.90;;;;;;5040997;28;20488;-74
2022/04/02 11:26:59;;;;;;;4.43;1.52;;;16.40;99.90;;;;;;5039473;28;20414;-71
2022/04/02 11:29:30;;;;;;;5.53;1.60;;;16.40;99.90;;;;;;5041146;28;20104;-74
2022/04/02 11:32:01;;;;;;;5.45;1.60;;;16.20;99.90;;;;;;5041005;28;20314;-71
2022/04/02 11:34:32;;;;;;;6.35;1.55;;;16.10;99.90;;;;;;5038970;28;20143;-71
2022/04/02 11:37:07;;;;;;;7.30;1.58;;;16.10;99.90;;;;;;5040684;28;20053;-67
2022/04/02 11:39:52;;;;;;;8.75;1.83;;;16.00;99.90;;;;;;5039760;28;20514;-66
2022/04/02 11:42:25;;;;;;;5.18;1.40;;;15.80;99.90;;;;;;5042754;28;20025;-70
2022/04/02 11:44:53;;;;;;;4.50;0.82;;;15.70;99.90;;;;;;5047235;28;20454;-72
2022/04/02 11:47:28;;;;;;;2.45;1.10;;;15.60;99.90;;;;;;5038756;28;20112;-72
2022/04/02 11:50:07;;;;;;;6.43;0.90;;;15.60;99.90;;;;;;5039321;28;20029;-70
2022/04/02 11:52:53;;;;;;;3.30;0.90;;;15.80;99.90;;;;;;5039034;28;20028;-71
2022/04/02 11:55:20;;;;;;;3.28;0.60;;;15.70;99.90;;;;;;5040831;28;20417;-71
2022/04/02 11:58:09;;;;;;;2.10;0.50;;;15.70;99.90;;;;;;5040936;28;20123;-66
2022/04/02 12:00:38;;;;;;;1.65;0.60;;;15.60;99.90;;;;;;5041148;28;20074;-66
2022/04/02 12:03:20;;;;;;;0.68;0.38;;;15.60;99.90;;;;;;5044225;28;20087;-74
2022/04/02 12:05:49;;;;;;;1.55;0.30;;;15.50;99.90;;;;;;5040959;28;20025;-71
2022/04/02 12:08:32;;;;;;;1.35;0.28;;;15.60;99.90;;;;;;5042256;28;20033;-71
2022/04/02 12:11:00;;;;;;;0.93;0.50;;;15.50;99.90;;;;;;5041903;28;20037;-70
2022/04/02 12:13:28;;;;;;;3.50;0.40;;;15.40;99.90;;;;;;5038978;28;20033;-70
2022/04/02 12:16:01;;;;;;;0.75;0.32;;;15.30;99.90;;;;;;5040483;28;20037;-70
2022/04/02 12:18:30;;;;;;;0.30;0.30;;;15.20;99.90;;;;;;5041747;28;20079;-69
2022/04/02 12:21:07;;;;;;;1.45;0.40;;;15.20;99.90;;;;;;5040337;28;20426;-70
2022/04/02 12:23:36;;;;;;;0.93;0.52;;;15.10;99.90;;;;;;5043138;28;20049;-65
2022/04/02 12:26:06;;;;;;;2.77;0.67;;;15.00;99.90;;;;;;5040718;28;20187;-70
2022/04/02 12:28:44;;;;;;;3.72;1.10;;;14.80;99.90;;;;;;5036551;28;20282;-69
2022/04/02 12:31:12;;;;;;;13.38;9.00;;;14.60;99.90;;;;;;5043306;28;20020;-70
2022/04/02 12:33:40;;;;;;;6.63;3.97;;;14.60;99.90;;;;;;5040751;28;20020;-65
2022/04/02 12:36:12;;;;;;;3.58;1.65;;;14.40;99.90;;;;;;5044465;28;20035;-70
2022/04/02 12:38:41;;;;;;;2.38;1.00;;;14.40;99.90;;;;;;5046177;28;20045;-69
2022/04/02 12:41:28;;;;;;;3.05;1.10;;;14.30;99.90;;;;;;5043666;28;20025;-65
2022/04/02 12:44:06;;;;;;;3.70;1.02;;;14.20;99.90;;;;;;5044961;28;20094;-69
2022/04/02 12:46:33;;;;;;;3.90;1.13;;;14.10;99.90;;;;;;5044174;28;20025;-70
2022/04/02 12:49:00;;;;;;;3.65;1.17;;;14.10;99.90;;;;;;5042058;28;20021;-65
2022/04/02 12:51:27;;;;;;;4.03;2.47;;;14.00;99.90;;;;;;5043155;28;20024;-69
2022/04/02 12:54:03;;;;;;;2.65;2.13;;;14.00;99.90;;;;;;5049466;28;20056;-70
2022/04/02 12:56:33;;;;;;;5.78;2.50;;;13.90;99.90;;;;;;5046308;28;20021;-70
2022/04/02 12:59:02;;;;;;;3.63;2.45;;;13.90;99.90;;;;;;5044923;28;20486;-65
2022/04/02 13:01:33;;;;;;;4.07;2.85;;;13.90;99.90;;;;;;5050675;28;20037;-70
2022/04/02 13:04:01;;;;;;;3.35;2.50;;;14.00;99.90;;;;;;5048676;28;20029;-69
2022/04/02 13:06:29;;;;;;;4.25;2.47;;;13.90;99.90;;;;;;5044385;28;20512;-70
2022/04/02 13:09:01;;;;;;;3.78;2.83;;;13.90;99.90;;;;;;5044122;28;20060;-70
2022/04/02 13:11:45;;;;;;;3.47;2.75;;;13.90;99.90;;;;;;5039277;28;20070;-70
2022/04/02 13:14:16;;;;;;;4.85;2.80;;;13.90;99.90;;;;;;5042028;28;20028;-70
2022/04/02 13:16:43;;;;;;;3.63;2.45;;;13.80;99.90;;;;;;5035975;28;20585;-69